KBOI/BOI METAR and TAF weather

Enter ICAO airport designator
Station Type Date Time Source
KBOI METAR 2022/08/16 18:53 UTC NOAA

KBOI 161853Z 35006KT 10SM CLR 33/04 A3001 RMK AO2 SLP128 T03280039


Station Type Date Time Source
KBOI Decoded METAR 2022/08/16 18:53 UTC NOAA

BOISE AIR TERMINAL, ID, United States (KBOI) 43-34N 116-14W 875M
Aug 16, 2022 - 02:53 PM EDT / 2022.08.16 1853 UTC
Wind: from the N (350 degrees) at 7 MPH (6 KT):0
Visibility: 10 mile(s):0
Sky conditions: clear
Temperature: 91.0 F (32.8 C)
Dew Point: 39.0 F (3.9 C)
Relative Humidity: 16%
Pressure (altimeter): 30.01 in. Hg (1016 hPa)
ob: KBOI 161853Z 35006KT 10SM CLR 33/04 A3001 RMK AO2 SLP128 T03280039
cycle: 19

Station Type Date Time Source
KBOI TAF 2022/08/16 18:24 UTC NOAA

TAF KBOI 161721Z 1618/1718 VRB05KT P6SM SKC
FM162000 30010KT P6SM SKC
FM170300 VRB05KT P6SM SKC

Example: see airport list